createdAt,value
2022-09-23T00:04:17.849Z,71.34
2022-09-23T00:09:24.492Z,71.35
2022-09-23T00:14:29.872Z,71.40
2022-09-23T00:19:35.506Z,71.58
2022-09-23T00:24:40.896Z,71.59
2022-09-23T00:29:46.302Z,71.66
2022-09-23T00:34:52.056Z,71.52
2022-09-23T00:39:57.612Z,71.56
2022-09-23T00:45:03.261Z,71.81
2022-09-23T00:50:33.985Z,71.98
2022-09-23T00:55:45.066Z,71.98
2022-09-23T01:00:50.814Z,72.14
2022-09-23T01:05:57.823Z,72.29
2022-09-23T01:11:18.961Z,72.41
2022-09-23T01:16:45.523Z,72.39
2022-09-23T01:22:01.332Z,72.53
2022-09-23T01:27:13.786Z,72.51
2022-09-23T01:32:42.937Z,72.66
2022-09-23T01:37:53.970Z,72.69
2022-09-23T01:43:05.171Z,72.49
2022-09-23T01:48:34.891Z,72.60
2022-09-23T01:53:46.390Z,72.70
2022-09-23T01:58:54.823Z,72.64
2022-09-23T02:04:12.878Z,72.66
2022-09-23T02:09:21.307Z,72.76
2022-09-23T02:14:32.563Z,72.91
2022-09-23T02:19:46.459Z,72.91
2022-09-23T02:24:54.104Z,72.99
2022-09-23T02:30:09.528Z,73.01
2022-09-23T02:35:29.372Z,73.04
2022-09-23T02:40:43.580Z,73.07
2022-09-23T02:45:49.962Z,72.99
2022-09-23T02:50:56.281Z,72.94
2022-09-23T02:56:03.381Z,73.04
2022-09-23T03:01:11.858Z,73.20
2022-09-23T03:06:32.173Z,72.92
2022-09-23T03:11:41.038Z,73.05
2022-09-23T03:17:01.547Z,73.06
2022-09-23T03:22:21.907Z,72.93
2022-09-23T03:27:30.338Z,73.17
2022-09-23T03:32:38.436Z,73.08
2022-09-23T03:37:49.723Z,73.26
2022-09-23T03:42:57.229Z,73.43
2022-09-23T03:48:03.088Z,73.27
2022-09-23T03:53:08.657Z,73.45
2022-09-23T03:58:14.686Z,73.63
2022-09-23T04:03:20.536Z,73.67
2022-09-23T04:08:26.964Z,73.46
2022-09-23T04:13:32.891Z,73.00
2022-09-23T04:18:38.273Z,73.15
2022-09-23T04:23:44.097Z,73.36
2022-09-23T04:28:49.572Z,73.52
2022-09-23T04:33:55.597Z,73.71
2022-09-23T04:39:02.040Z,74.03
2022-09-23T04:44:07.522Z,73.67
2022-09-23T04:49:13.286Z,73.83
2022-09-23T04:54:19.139Z,73.87
2022-09-23T04:59:25.101Z,73.85
2022-09-23T05:04:31.573Z,73.60
2022-09-23T05:09:37.121Z,73.75
2022-09-23T05:14:42.673Z,74.05
2022-09-23T05:19:48.137Z,74.26
2022-09-23T05:24:54.209Z,74.24
2022-09-23T05:30:01.180Z,74.52
2022-09-23T05:35:08.184Z,74.44
2022-09-23T05:40:13.615Z,74.72
2022-09-23T05:45:19.113Z,74.72
2022-09-23T05:50:24.524Z,74.90
2022-09-23T05:55:29.927Z,75.07
2022-09-23T06:00:35.387Z,75.31
2022-09-23T06:05:41.123Z,75.63
2022-09-23T06:10:53.535Z,75.89
2022-09-23T06:15:58.942Z,76.09
2022-09-23T06:21:05.996Z,76.21
2022-09-23T06:26:14.245Z,76.35
2022-09-23T06:31:20.034Z,76.20
2022-09-23T06:36:40.878Z,76.62
2022-09-23T06:41:32.695Z,76.64
2022-09-23T06:46:38.158Z,77.14
2022-09-23T06:51:43.843Z,77.42
2022-09-23T06:56:49.244Z,77.51
2022-09-23T07:01:55.038Z,77.38
2022-09-23T07:07:00.606Z,77.08
2022-09-23T07:12:06.083Z,76.82
2022-09-23T07:17:14.032Z,76.66
2022-09-23T07:22:19.897Z,76.38
2022-09-23T07:27:29.524Z,76.45
2022-09-23T07:32:45.014Z,76.33
2022-09-23T07:37:42.013Z,76.28
2022-09-23T07:42:48.085Z,76.07
2022-09-23T07:47:53.462Z,75.60
2022-09-23T07:52:58.852Z,75.70
2022-09-23T07:58:04.258Z,75.70
2022-09-23T08:03:10.305Z,75.63
2022-09-23T08:08:15.853Z,74.62
2022-09-23T08:13:21.312Z,74.48
2022-09-23T08:18:27.052Z,74.27
2022-09-23T08:23:34.035Z,73.37
2022-09-23T08:28:39.884Z,73.04
2022-09-23T08:33:45.277Z,72.85
2022-09-23T08:38:50.731Z,72.15
2022-09-23T08:43:59.261Z,71.32
2022-09-23T08:49:07.754Z,69.75
2022-09-23T08:54:13.977Z,68.72
2022-09-23T08:59:38.199Z,67.86
2022-09-23T09:04:46.625Z,66.73
2022-09-23T09:10:12.755Z,65.94
2022-09-23T09:15:25.021Z,64.95
2022-09-23T09:20:54.854Z,63.71
2022-09-23T09:26:05.160Z,62.42
2022-09-23T09:31:22.555Z,61.59
2022-09-23T09:36:36.942Z,60.39
2022-09-23T09:41:45.426Z,59.58
2022-09-23T09:47:00.677Z,58.94
2022-09-23T09:52:20.467Z,58.23
2022-09-23T09:57:35.195Z,56.97
2022-09-23T10:02:42.365Z,56.56
2022-09-23T10:07:48.758Z,55.88
2022-09-23T10:12:54.425Z,54.97
2022-09-23T10:18:03.780Z,54.78
2022-09-23T10:23:14.813Z,53.15
2022-09-23T10:28:43.878Z,52.99
2022-09-23T10:33:51.370Z,52.41
2022-09-23T10:39:21.056Z,51.22
2022-09-23T10:44:56.201Z,51.78
2022-09-23T10:50:04.915Z,50.64
2022-09-23T10:55:16.061Z,49.28
2022-09-23T11:00:30.355Z,49.95
2022-09-23T11:05:47.884Z,49.28
2022-09-23T11:11:11.618Z,48.81
2022-09-23T11:16:32.264Z,48.70
2022-09-23T11:21:58.821Z,48.87
2022-09-23T11:27:07.253Z,48.39
2022-09-23T11:32:33.857Z,48.65
2022-09-23T11:37:42.290Z,48.24
2022-09-23T11:43:02.510Z,48.27
2022-09-23T11:48:16.798Z,47.15
2022-09-23T11:53:25.231Z,47.15
2022-09-23T11:58:36.475Z,46.56
2022-09-23T12:03:53.719Z,45.72
2022-09-23T12:09:08.338Z,45.41
2022-09-23T12:14:28.293Z,45.02
2022-09-23T12:19:56.444Z,44.42
2022-09-23T12:25:38.285Z,44.29
2022-09-23T12:30:44.978Z,43.92
2022-09-23T12:35:50.976Z,44.12
2022-09-23T12:40:57.402Z,43.64
2022-09-23T12:46:27.568Z,43.25
2022-09-23T12:51:35.929Z,43.54
2022-09-23T12:56:44.353Z,43.77
2022-09-23T13:01:50.075Z,43.45
2022-09-23T13:07:01.616Z,43.21
2022-09-23T13:12:10.504Z,41.95
2022-09-23T13:17:28.061Z,42.48
2022-09-23T13:22:54.331Z,42.20
2022-09-23T13:28:05.008Z,41.82
2022-09-23T13:33:19.400Z,42.06
2022-09-23T13:38:28.219Z,41.90
2022-09-23T13:43:41.382Z,41.94
2022-09-23T13:48:49.114Z,41.13
2022-09-23T13:53:57.586Z,40.84
2022-09-23T13:59:28.879Z,39.80
2022-09-23T14:04:34.279Z,39.69
2022-09-23T14:09:45.987Z,39.86
2022-09-23T14:14:53.502Z,39.95
2022-09-23T14:19:58.969Z,40.17
2022-09-23T14:25:04.713Z,39.69
2022-09-23T14:30:21.161Z,39.81
2022-09-23T14:35:29.772Z,39.61
2022-09-23T14:40:40.945Z,40.06
2022-09-23T14:45:50.590Z,39.67
2022-09-23T14:51:04.656Z,39.96
2022-09-23T14:56:20.557Z,40.01
2022-09-23T15:01:34.859Z,40.11
2022-09-23T15:06:42.869Z,40.55
2022-09-23T15:11:48.550Z,40.54
2022-09-23T15:16:55.122Z,40.64
2022-09-23T15:22:00.608Z,41.03
2022-09-23T15:27:27.119Z,41.33
2022-09-23T15:32:32.530Z,41.79
2022-09-23T15:37:38.035Z,42.05
2022-09-23T15:42:48.284Z,42.81
2022-09-23T15:47:53.949Z,43.41
2022-09-23T15:52:59.992Z,43.60
2022-09-23T15:58:05.404Z,44.08
2022-09-23T16:03:15.703Z,44.68
2022-09-23T16:08:22.817Z,45.39
2022-09-23T16:13:28.209Z,45.67
2022-09-23T16:18:34.186Z,46.02
2022-09-23T16:23:46.906Z,46.50
2022-09-23T16:28:55.021Z,47.07
2022-09-23T16:34:02.147Z,47.58
2022-09-23T16:39:10.571Z,48.08
2022-09-23T16:44:16.495Z,48.54
2022-09-23T16:49:21.931Z,49.06
2022-09-23T16:54:27.328Z,49.53
2022-09-23T16:59:34.370Z,50.04
2022-09-23T17:04:40.809Z,50.48
2022-09-23T17:09:46.356Z,50.94
2022-09-23T17:14:52.799Z,51.45
2022-09-23T17:19:58.380Z,51.89
2022-09-23T17:25:03.963Z,52.28
2022-09-23T17:30:10.736Z,52.78
2022-09-23T17:35:16.215Z,53.21
2022-09-23T17:40:21.673Z,53.73
2022-09-23T17:45:27.427Z,54.19
2022-09-23T17:50:33.067Z,54.71
2022-09-23T17:55:38.615Z,55.26
2022-09-23T18:00:46.960Z,55.65
2022-09-23T18:05:52.652Z,56.01
2022-09-23T18:11:01.341Z,56.56
2022-09-23T18:16:07.149Z,56.82
2022-09-23T18:21:12.846Z,57.15
2022-09-23T18:26:20.518Z,57.58
2022-09-23T18:31:26.572Z,57.98
2022-09-23T18:36:33.290Z,58.23
2022-09-23T18:41:39.248Z,58.58
2022-09-23T18:46:45.009Z,58.92
2022-09-23T18:51:58.651Z,59.18
2022-09-23T18:57:04.749Z,59.43
2022-09-23T19:02:10.399Z,59.85
2022-09-23T19:07:16.041Z,60.02
2022-09-23T19:12:22.817Z,60.26
2022-09-23T19:17:29.662Z,60.54
2022-09-23T19:22:35.263Z,60.82
2022-09-23T19:27:40.731Z,61.07
2022-09-23T19:32:49.025Z,61.31
2022-09-23T19:37:54.549Z,61.54
2022-09-23T19:42:59.994Z,61.71
2022-09-23T19:48:07.836Z,61.91
2022-09-23T19:53:13.971Z,62.18
2022-09-23T19:58:19.866Z,62.41
2022-09-23T20:03:26.157Z,62.55
2022-09-23T20:08:46.549Z,62.75
2022-09-23T20:13:56.157Z,62.95
2022-09-23T20:19:04.139Z,63.18
2022-09-23T20:24:12.102Z,63.38
2022-09-23T20:29:17.512Z,63.57
2022-09-23T20:34:23.592Z,63.72
2022-09-23T20:39:29.345Z,63.72
2022-09-23T20:44:34.763Z,64.04
2022-09-23T20:49:41.842Z,64.15
2022-09-23T20:54:47.505Z,64.22
2022-09-23T20:59:53.269Z,64.23
2022-09-23T21:04:58.680Z,64.43
2022-09-23T21:10:05.875Z,64.62
2022-09-23T21:15:11.996Z,64.88
2022-09-23T21:20:17.523Z,65.11
2022-09-23T21:25:28.095Z,65.26
2022-09-23T21:30:30.111Z,65.30
2022-09-23T21:35:35.508Z,65.40
2022-09-23T21:40:59.124Z,65.64
2022-09-23T21:46:07.836Z,65.83
2022-09-23T21:51:16.136Z,65.95
2022-09-23T21:56:24.561Z,66.05
2022-09-23T22:01:35.649Z,66.33
2022-09-23T22:06:41.224Z,66.27
2022-09-23T22:12:05.103Z,66.52
2022-09-23T22:17:12.694Z,66.71
2022-09-23T22:22:19.409Z,66.66
2022-09-23T22:27:26.695Z,66.82
2022-09-23T22:32:41.230Z,66.86
2022-09-23T22:37:48.057Z,66.88
2022-09-23T22:42:54.458Z,67.17
2022-09-23T22:47:59.864Z,67.16
2022-09-23T22:53:05.544Z,67.39
2022-09-23T22:58:31.191Z,67.59
2022-09-23T23:03:19.945Z,67.72
2022-09-23T23:08:27.078Z,67.67
2022-09-23T23:13:33.471Z,67.79
2022-09-23T23:18:45.535Z,67.88
2022-09-23T23:23:53.454Z,67.99
2022-09-23T23:29:00.016Z,68.06
2022-09-23T23:34:07.951Z,68.23
2022-09-23T23:39:14.605Z,68.28
2022-09-23T23:44:20.008Z,68.04
2022-09-23T23:49:25.771Z,68.33
2022-09-23T23:54:33.044Z,68.51
2022-09-23T23:59:38.611Z,68.69
